createdAt,value
2023-02-15T00:01:44.716Z,8.87
2023-02-15T00:04:15.975Z,8.85
2023-02-15T00:06:43.745Z,8.83
2023-02-15T00:09:12.733Z,8.82
2023-02-15T00:11:43.891Z,8.78
2023-02-15T00:14:14.142Z,8.79
2023-02-15T00:16:43.536Z,8.75
2023-02-15T00:19:14.424Z,8.76
2023-02-15T00:21:42.585Z,8.74
2023-02-15T00:24:13.345Z,8.73
2023-02-15T00:26:42.250Z,8.72
2023-02-15T00:29:11.425Z,8.62
2023-02-15T00:31:39.547Z,8.70
2023-02-15T00:34:09.853Z,8.68
2023-02-15T00:36:39.024Z,8.67
2023-02-15T00:39:07.573Z,8.66
2023-02-15T00:41:35.920Z,8.55
2023-02-15T00:44:03.987Z,8.63
2023-02-15T00:46:31.875Z,8.61
2023-02-15T00:48:59.612Z,8.60
2023-02-15T00:51:27.328Z,8.58
2023-02-15T00:53:56.384Z,8.58
2023-02-15T00:56:24.113Z,8.55
2023-02-15T00:58:51.788Z,8.54
2023-02-15T01:01:21.773Z,8.52
2023-02-15T01:03:49.733Z,8.50
2023-02-15T01:06:18.816Z,8.50
2023-02-15T01:08:47.641Z,8.47
2023-02-15T01:11:22.993Z,8.46
2023-02-15T01:13:51.452Z,8.45
2023-02-15T01:16:19.401Z,8.44
2023-02-15T01:18:47.381Z,8.42
2023-02-15T01:21:16.691Z,8.39
2023-02-15T01:23:45.137Z,8.38
2023-02-15T01:26:13.453Z,8.37
2023-02-15T01:28:43.143Z,8.35
2023-02-15T01:31:12.773Z,8.36
2023-02-15T01:33:40.748Z,8.31
2023-02-15T01:36:08.906Z,8.32
2023-02-15T01:38:37.598Z,8.30
2023-02-15T01:41:27.586Z,8.27
2023-02-15T01:43:58.715Z,8.27
2023-02-15T01:46:32.950Z,8.27
2023-02-15T01:49:05.492Z,8.25
2023-02-15T01:51:37.184Z,8.22
2023-02-15T01:54:11.910Z,8.23
2023-02-15T01:56:42.803Z,8.21
2023-02-15T01:59:17.588Z,8.19
2023-02-15T02:01:45.955Z,8.18
2023-02-15T02:04:18.465Z,8.17
2023-02-15T02:06:49.800Z,8.16
2023-02-15T02:09:17.737Z,8.14
2023-02-15T02:11:48.310Z,8.13
2023-02-15T02:14:18.300Z,8.10
2023-02-15T02:16:52.809Z,8.08
2023-02-15T02:19:44.902Z,8.09
2023-02-15T02:22:47.673Z,8.07
2023-02-15T02:25:43.404Z,8.05
2023-02-15T02:28:27.529Z,8.05
2023-02-15T02:31:13.543Z,7.96
2023-02-15T02:33:57.680Z,8.03
2023-02-15T02:36:35.915Z,8.01
2023-02-15T02:39:22.159Z,8.00
2023-02-15T02:41:57.912Z,7.98
2023-02-15T02:44:30.912Z,7.98
2023-02-15T02:47:04.322Z,7.96
2023-02-15T02:49:36.154Z,7.95
2023-02-15T02:52:05.672Z,7.94
2023-02-15T02:54:36.396Z,7.94
2023-02-15T02:57:08.038Z,7.94
2023-02-15T02:59:41.088Z,7.92
2023-02-15T03:02:16.005Z,7.91
2023-02-15T03:04:49.678Z,7.89
2023-02-15T03:07:23.166Z,7.88
2023-02-15T03:09:53.570Z,7.86
2023-02-15T03:12:24.230Z,7.85
2023-02-15T03:14:55.162Z,7.83
2023-02-15T03:17:26.692Z,7.80
2023-02-15T03:19:59.806Z,7.78
2023-02-15T03:22:31.120Z,7.79
2023-02-15T03:25:01.645Z,7.77
2023-02-15T03:27:35.399Z,7.76
2023-02-15T03:30:06.983Z,7.74
2023-02-15T03:32:36.512Z,7.73
2023-02-15T03:35:06.273Z,7.72
2023-02-15T03:37:39.141Z,7.71
2023-02-15T03:40:27.051Z,7.70
2023-02-15T03:43:02.741Z,7.68
2023-02-15T03:45:35.002Z,7.66
2023-02-15T03:48:05.080Z,7.64
2023-02-15T03:50:55.813Z,7.62
2023-02-15T03:53:26.285Z,7.62
2023-02-15T03:55:56.751Z,7.59
2023-02-15T03:58:42.199Z,7.60
2023-02-15T04:01:33.687Z,7.58
2023-02-15T04:04:05.010Z,7.58
2023-02-15T04:06:34.113Z,7.56
2023-02-15T04:09:19.243Z,7.53
2023-02-15T04:11:47.320Z,7.55
2023-02-15T04:14:32.679Z,7.53
2023-02-15T04:17:00.382Z,7.51
2023-02-15T04:19:45.813Z,7.50
2023-02-15T04:22:32.492Z,7.48
2023-02-15T04:25:12.702Z,7.48
2023-02-15T04:27:41.215Z,7.46
2023-02-15T04:30:10.439Z,7.45
2023-02-15T04:32:38.528Z,7.45
2023-02-15T04:35:07.450Z,7.43
2023-02-15T04:37:36.860Z,7.43
2023-02-15T04:40:05.168Z,7.43
2023-02-15T04:42:33.105Z,7.42
2023-02-15T04:45:00.851Z,7.41
2023-02-15T04:47:28.614Z,7.31
2023-02-15T04:49:58.065Z,7.38
2023-02-15T04:52:26.411Z,7.39
2023-02-15T04:54:55.504Z,7.37
2023-02-15T04:57:23.199Z,7.35
2023-02-15T04:59:50.908Z,7.36
2023-02-15T05:02:18.596Z,7.34
2023-02-15T05:04:46.327Z,7.32
2023-02-15T05:07:15.667Z,7.31
2023-02-15T05:09:43.405Z,7.21
2023-02-15T05:12:12.479Z,7.29
2023-02-15T05:14:40.236Z,7.27
2023-02-15T05:17:07.978Z,7.27
2023-02-15T05:19:35.694Z,7.24
2023-02-15T05:22:03.417Z,7.23
2023-02-15T05:24:48.636Z,7.19
2023-02-15T05:27:35.513Z,7.21
2023-02-15T05:30:03.627Z,7.21
2023-02-15T05:32:31.650Z,7.18
2023-02-15T05:34:59.459Z,7.15
2023-02-15T05:37:27.229Z,7.15
2023-02-15T05:39:54.940Z,7.14
2023-02-15T05:42:24.113Z,7.14
2023-02-15T05:44:51.825Z,7.10
2023-02-15T05:47:19.578Z,7.11
2023-02-15T05:49:47.285Z,7.09
2023-02-15T05:52:15.098Z,7.10
2023-02-15T05:54:42.827Z,7.08
2023-02-15T05:57:10.534Z,7.07
2023-02-15T05:59:39.628Z,7.06
2023-02-15T06:02:08.202Z,7.05
2023-02-15T06:04:37.255Z,7.05
2023-02-15T06:07:05.000Z,7.05
2023-02-15T06:09:32.748Z,7.03
2023-02-15T06:12:00.481Z,7.12
2023-02-15T06:14:28.290Z,7.24
2023-02-15T06:16:57.375Z,7.38
2023-02-15T06:19:25.114Z,7.51
2023-02-15T06:21:52.865Z,7.66
2023-02-15T06:24:20.570Z,7.81
2023-02-15T06:26:48.344Z,7.86
2023-02-15T06:29:16.286Z,7.83
2023-02-15T06:31:44.215Z,7.76
2023-02-15T06:34:14.036Z,7.64
2023-02-15T06:36:41.782Z,7.49
2023-02-15T06:39:09.619Z,7.46
2023-02-15T06:41:37.355Z,7.40
2023-02-15T06:44:05.437Z,7.34
2023-02-15T06:46:33.231Z,7.28
2023-02-15T06:49:01.056Z,7.26
2023-02-15T06:51:30.091Z,7.23
2023-02-15T06:53:57.857Z,7.19
2023-02-15T06:56:25.614Z,7.16
2023-02-15T06:58:53.822Z,7.13
2023-02-15T07:01:21.559Z,7.10
2023-02-15T07:03:49.343Z,7.08
2023-02-15T07:06:17.114Z,7.05
2023-02-15T07:08:46.247Z,7.04
2023-02-15T07:11:31.784Z,7.01
2023-02-15T07:13:59.458Z,6.93
2023-02-15T07:16:27.399Z,6.88
2023-02-15T07:18:55.116Z,6.87
2023-02-15T07:21:22.862Z,6.85
2023-02-15T07:23:51.905Z,6.86
2023-02-15T07:26:19.657Z,6.84
2023-02-15T07:28:47.383Z,6.76
2023-02-15T07:31:15.104Z,6.81
2023-02-15T07:33:42.837Z,6.81
2023-02-15T07:36:13.001Z,6.80
2023-02-15T07:38:42.777Z,6.79
2023-02-15T07:41:13.432Z,6.77
2023-02-15T07:43:43.008Z,6.75
2023-02-15T07:46:13.507Z,6.76
2023-02-15T07:48:41.874Z,6.75
2023-02-15T07:51:11.525Z,6.68
2023-02-15T07:53:40.333Z,6.65
2023-02-15T07:56:12.740Z,6.74
2023-02-15T07:58:53.531Z,6.74
2023-02-15T08:01:23.166Z,6.71
2023-02-15T08:03:51.609Z,6.69
2023-02-15T08:06:19.441Z,6.69
2023-02-15T08:08:47.152Z,6.68
2023-02-15T08:11:30.056Z,6.70
2023-02-15T08:14:00.466Z,6.69
2023-02-15T08:16:31.663Z,6.69
2023-02-15T08:19:01.116Z,6.69
2023-02-15T08:21:30.089Z,6.69
2023-02-15T08:23:58.577Z,6.69
2023-02-15T08:26:28.670Z,6.69
2023-02-15T08:28:56.817Z,6.70
2023-02-15T08:31:25.227Z,6.70
2023-02-15T08:33:55.246Z,6.72
2023-02-15T08:36:24.491Z,6.70
2023-02-15T08:38:52.779Z,6.74
2023-02-15T08:41:22.117Z,6.75
2023-02-15T08:43:54.639Z,6.76
2023-02-15T08:46:24.261Z,6.76
2023-02-15T08:48:52.614Z,6.75
2023-02-15T08:51:22.632Z,6.76
2023-02-15T08:53:51.852Z,6.79
2023-02-15T08:56:21.177Z,6.81
2023-02-15T08:58:49.024Z,6.82
2023-02-15T09:01:22.350Z,6.84
2023-02-15T09:03:53.853Z,6.92
2023-02-15T09:06:22.873Z,7.05
2023-02-15T09:08:50.889Z,7.22
2023-02-15T09:11:24.677Z,7.41
2023-02-15T09:13:55.436Z,7.58
2023-02-15T09:16:26.595Z,7.72
2023-02-15T09:18:54.946Z,7.86
2023-02-15T09:21:24.979Z,8.02
2023-02-15T09:23:58.633Z,8.16
2023-02-15T09:26:28.012Z,8.29
2023-02-15T09:28:57.816Z,8.45
2023-02-15T09:31:29.289Z,8.56
2023-02-15T09:33:57.722Z,8.62
2023-02-15T09:36:27.948Z,8.79
2023-02-15T09:38:58.550Z,8.88
2023-02-15T09:41:48.579Z,8.96
2023-02-15T09:44:22.834Z,9.02
2023-02-15T09:47:09.038Z,8.98
2023-02-15T09:49:47.200Z,9.11
2023-02-15T09:52:26.655Z,9.13
2023-02-15T09:55:10.926Z,9.19
2023-02-15T09:57:49.118Z,9.26
2023-02-15T10:00:30.084Z,9.29
2023-02-15T10:03:17.543Z,9.36
2023-02-15T10:05:51.001Z,9.41
2023-02-15T10:08:50.562Z,9.33
2023-02-15T10:11:43.220Z,9.21
2023-02-15T10:14:23.306Z,9.02
2023-02-15T10:17:03.417Z,8.89
2023-02-15T10:19:44.857Z,8.76
2023-02-15T10:22:23.260Z,8.69
2023-02-15T10:25:18.401Z,8.62
2023-02-15T10:27:48.631Z,8.57
2023-02-15T10:30:17.962Z,8.50
2023-02-15T10:32:57.050Z,8.47
2023-02-15T10:35:35.261Z,8.45
2023-02-15T10:38:12.099Z,8.44
2023-02-15T10:40:45.240Z,8.42
2023-02-15T10:43:35.798Z,8.39
2023-02-15T10:46:14.600Z,8.29
2023-02-15T10:48:59.742Z,8.36
2023-02-15T10:51:41.709Z,8.35
2023-02-15T10:54:21.630Z,8.35
2023-02-15T10:57:02.635Z,8.36
2023-02-15T10:59:57.030Z,8.35
2023-02-15T11:02:35.501Z,8.38
2023-02-15T11:05:20.615Z,8.40
2023-02-15T11:07:53.081Z,8.39
2023-02-15T11:10:30.563Z,8.43
2023-02-15T11:13:02.861Z,8.44
2023-02-15T11:15:35.492Z,8.45
2023-02-15T11:18:11.626Z,8.47
2023-02-15T11:20:45.018Z,8.48
2023-02-15T11:23:19.303Z,8.46
2023-02-15T11:25:54.412Z,8.52
2023-02-15T11:28:26.852Z,8.54
2023-02-15T11:30:58.002Z,8.56
2023-02-15T11:33:30.002Z,8.56
2023-02-15T11:36:02.786Z,8.60
2023-02-15T11:38:34.997Z,8.62
2023-02-15T11:41:07.558Z,8.64
2023-02-15T11:43:40.379Z,8.66
2023-02-15T11:46:12.784Z,8.71
2023-02-15T11:48:41.343Z,8.76
2023-02-15T11:51:17.001Z,8.80
2023-02-15T11:53:47.864Z,8.82
2023-02-15T11:56:17.744Z,8.86
2023-02-15T11:58:49.692Z,8.88
2023-02-15T12:01:20.208Z,8.89
2023-02-15T12:03:50.468Z,8.92
2023-02-15T12:06:24.305Z,8.95
2023-02-15T12:09:02.181Z,8.98
2023-02-15T12:11:36.165Z,9.01
2023-02-15T12:14:06.298Z,9.01
2023-02-15T12:16:42.755Z,9.01
2023-02-15T12:19:23.609Z,9.07
2023-02-15T12:21:53.860Z,9.09
2023-02-15T12:24:26.845Z,9.10
2023-02-15T12:27:04.687Z,9.11
2023-02-15T12:29:37.625Z,9.13
2023-02-15T12:32:05.985Z,9.18
2023-02-15T12:34:40.540Z,9.18
2023-02-15T12:37:13.793Z,9.21
2023-02-15T12:39:54.179Z,9.24
2023-02-15T12:42:22.857Z,9.27
2023-02-15T12:45:02.175Z,9.29
2023-02-15T12:47:31.639Z,9.30
2023-02-15T12:50:18.657Z,9.32
2023-02-15T12:52:49.471Z,9.29
2023-02-15T12:55:24.865Z,9.37
2023-02-15T12:58:07.942Z,9.38
2023-02-15T13:00:36.432Z,9.41
2023-02-15T13:03:04.975Z,9.41
2023-02-15T13:05:37.315Z,9.45
2023-02-15T13:08:13.387Z,9.49
2023-02-15T13:10:54.085Z,9.52
2023-02-15T13:13:24.921Z,9.54
2023-02-15T13:15:55.100Z,9.57
2023-02-15T13:18:32.471Z,9.62
2023-02-15T13:21:12.303Z,9.64
2023-02-15T13:23:44.007Z,9.68
2023-02-15T13:26:18.551Z,9.71
2023-02-15T13:28:49.436Z,9.73
2023-02-15T13:31:19.973Z,9.75
2023-02-15T13:33:52.172Z,9.77
2023-02-15T13:36:25.776Z,9.79
2023-02-15T13:39:06.220Z,9.82
2023-02-15T13:41:47.336Z,9.86
2023-02-15T13:44:29.109Z,9.87
2023-02-15T13:47:13.895Z,9.90
2023-02-15T13:49:54.746Z,9.90
2023-02-15T13:52:25.096Z,9.91
2023-02-15T13:55:25.125Z,9.93
2023-02-15T13:58:29.224Z,9.95
2023-02-15T14:01:08.274Z,9.96
2023-02-15T14:04:11.945Z,10.06
2023-02-15T14:06:52.630Z,10.24
2023-02-15T14:09:33.073Z,10.44
2023-02-15T14:12:14.380Z,10.65
2023-02-15T14:15:02.845Z,10.83
2023-02-15T14:17:42.287Z,11.01
2023-02-15T14:20:21.653Z,11.18
2023-02-15T14:22:58.023Z,11.37
2023-02-15T14:25:30.888Z,11.39
2023-02-15T14:28:05.974Z,11.31
2023-02-15T14:30:38.835Z,11.18
2023-02-15T14:33:09.937Z,11.05
2023-02-15T14:35:39.120Z,10.94
2023-02-15T14:38:15.781Z,10.86
2023-02-15T14:41:02.408Z,10.80
2023-02-15T14:43:43.843Z,10.75
2023-02-15T14:46:23.201Z,10.71
2023-02-15T14:48:53.964Z,10.68
2023-02-15T14:51:57.922Z,10.64
2023-02-15T14:54:59.056Z,10.59
2023-02-15T14:57:34.069Z,10.57
2023-02-15T15:00:08.095Z,10.53
2023-02-15T15:02:49.560Z,10.54
2023-02-15T15:05:21.884Z,10.52
2023-02-15T15:07:52.060Z,10.52
2023-02-15T15:10:37.405Z,10.51
2023-02-15T15:13:39.756Z,10.51
2023-02-15T15:16:32.969Z,10.51
2023-02-15T15:19:02.135Z,10.51
2023-02-15T15:21:57.982Z,10.50
2023-02-15T15:24:54.675Z,10.50
2023-02-15T15:27:46.473Z,10.54
2023-02-15T15:31:00.561Z,10.70
2023-02-15T15:34:01.589Z,10.92
2023-02-15T15:37:21.108Z,11.17
2023-02-15T15:40:27.818Z,11.39
2023-02-15T15:43:28.978Z,11.53
2023-02-15T15:46:13.530Z,11.70
2023-02-15T15:48:43.196Z,11.88
2023-02-15T15:51:16.682Z,12.00
2023-02-15T15:53:49.484Z,11.97
2023-02-15T15:56:22.543Z,11.85
2023-02-15T15:58:54.212Z,11.72
2023-02-15T16:01:28.571Z,11.57
2023-02-15T16:03:58.689Z,11.45
2023-02-15T16:06:36.028Z,11.34
2023-02-15T16:09:15.641Z,11.28
2023-02-15T16:11:45.348Z,11.21
2023-02-15T16:14:17.061Z,11.17
2023-02-15T16:16:52.586Z,11.11
2023-02-15T16:19:24.364Z,11.06
2023-02-15T16:21:52.479Z,11.01
2023-02-15T16:24:53.732Z,10.97
2023-02-15T16:27:42.893Z,10.93
2023-02-15T16:30:27.502Z,10.89
2023-02-15T16:32:56.878Z,10.85
2023-02-15T16:35:25.517Z,10.84
2023-02-15T16:37:53.208Z,10.82
2023-02-15T16:40:33.199Z,10.80
2023-02-15T16:43:07.534Z,10.71
2023-02-15T16:45:38.044Z,10.76
2023-02-15T16:48:10.281Z,10.74
2023-02-15T16:50:40.051Z,10.72
2023-02-15T16:53:16.161Z,10.71
2023-02-15T16:55:44.448Z,10.71
2023-02-15T16:58:18.264Z,10.70
2023-02-15T17:00:46.627Z,10.67
2023-02-15T17:03:26.250Z,10.66
2023-02-15T17:05:55.777Z,10.66
2023-02-15T17:08:28.772Z,10.63
2023-02-15T17:11:16.412Z,10.65
2023-02-15T17:14:21.744Z,10.64
2023-02-15T17:16:52.055Z,10.61
2023-02-15T17:19:24.108Z,10.61
2023-02-15T17:21:54.921Z,10.59
2023-02-15T17:24:31.188Z,10.59
2023-02-15T17:27:02.548Z,10.57
2023-02-15T17:29:36.527Z,10.57
2023-02-15T17:32:06.297Z,10.54
2023-02-15T17:34:46.396Z,10.54
2023-02-15T17:37:14.990Z,10.52
2023-02-15T17:39:42.753Z,10.52
2023-02-15T17:42:10.532Z,10.64
2023-02-15T17:44:39.784Z,10.81
2023-02-15T17:47:08.072Z,10.98
2023-02-15T17:49:37.924Z,11.14
2023-02-15T17:52:06.265Z,11.33
2023-02-15T17:54:51.729Z,11.47
2023-02-15T17:57:19.599Z,11.65
2023-02-15T18:00:06.419Z,11.80
2023-02-15T18:02:54.522Z,11.82
2023-02-15T18:05:40.272Z,11.77
2023-02-15T18:08:30.437Z,11.65
2023-02-15T18:11:15.924Z,11.51
2023-02-15T18:13:43.662Z,11.39
2023-02-15T18:16:16.287Z,11.31
2023-02-15T18:18:45.746Z,11.25
2023-02-15T18:21:14.808Z,11.18
2023-02-15T18:23:43.022Z,11.13
2023-02-15T18:26:18.005Z,11.06
2023-02-15T18:28:45.771Z,11.00
2023-02-15T18:31:15.755Z,10.95
2023-02-15T18:33:48.312Z,10.87
2023-02-15T18:36:21.778Z,10.86
2023-02-15T18:38:50.633Z,10.81
2023-02-15T18:41:20.085Z,10.75
2023-02-15T18:43:48.874Z,10.73
2023-02-15T18:46:18.927Z,10.71
2023-02-15T18:48:47.330Z,10.68
2023-02-15T18:51:23.086Z,10.66
2023-02-15T18:53:53.293Z,10.64
2023-02-15T18:56:23.499Z,10.74
2023-02-15T18:58:51.326Z,10.87
2023-02-15T19:01:22.039Z,11.05
2023-02-15T19:03:51.050Z,11.19
2023-02-15T19:06:21.476Z,11.33
2023-02-15T19:08:52.317Z,11.46
2023-02-15T19:11:23.163Z,11.62
2023-02-15T19:13:52.751Z,11.69
2023-02-15T19:16:29.593Z,11.67
2023-02-15T19:18:57.392Z,11.58
2023-02-15T19:21:25.641Z,11.45
2023-02-15T19:23:56.800Z,11.31
2023-02-15T19:26:36.308Z,11.19
2023-02-15T19:29:14.474Z,11.08
2023-02-15T19:31:43.936Z,10.99
2023-02-15T19:34:15.365Z,10.93
2023-02-15T19:36:44.290Z,10.86
2023-02-15T19:39:24.442Z,10.80
2023-02-15T19:41:52.621Z,10.74
2023-02-15T19:44:20.697Z,10.70
2023-02-15T19:46:49.832Z,10.65
2023-02-15T19:49:17.666Z,10.62
2023-02-15T19:51:45.501Z,10.58
2023-02-15T19:54:30.708Z,10.54
2023-02-15T19:56:58.808Z,10.52
2023-02-15T19:59:28.148Z,10.48
2023-02-15T20:01:57.534Z,10.45
2023-02-15T20:04:26.180Z,10.43
2023-02-15T20:06:56.271Z,10.40
2023-02-15T20:09:26.601Z,10.36
2023-02-15T20:11:54.706Z,10.33
2023-02-15T20:14:23.532Z,10.35
2023-02-15T20:16:51.711Z,10.32
2023-02-15T20:19:21.064Z,10.29
2023-02-15T20:21:54.380Z,10.28
2023-02-15T20:24:24.132Z,10.28
2023-02-15T20:26:51.860Z,10.26
2023-02-15T20:29:20.470Z,10.22
2023-02-15T20:31:48.512Z,10.24
2023-02-15T20:34:16.323Z,10.22
2023-02-15T20:36:45.518Z,10.14
2023-02-15T20:39:16.470Z,10.20
2023-02-15T20:41:47.782Z,10.19
2023-02-15T20:44:21.409Z,10.17
2023-02-15T20:46:52.748Z,10.16
2023-02-15T20:49:20.630Z,10.17
2023-02-15T20:51:49.720Z,10.16
2023-02-15T20:54:19.248Z,10.16
2023-02-15T20:56:47.372Z,10.15
2023-02-15T20:59:26.947Z,10.13
2023-02-15T21:02:02.902Z,10.11
2023-02-15T21:04:32.919Z,10.09
2023-02-15T21:07:02.239Z,10.08
2023-02-15T21:09:30.284Z,10.08
2023-02-15T21:12:02.244Z,10.06
2023-02-15T21:14:30.401Z,10.05
2023-02-15T21:16:58.153Z,10.03
2023-02-15T21:19:26.079Z,10.03
2023-02-15T21:21:54.649Z,10.00
2023-02-15T21:24:27.222Z,10.00
2023-02-15T21:26:56.687Z,9.98
2023-02-15T21:29:26.872Z,9.97
2023-02-15T21:31:54.890Z,9.93
2023-02-15T21:34:22.697Z,9.93
2023-02-15T21:36:51.623Z,9.94
2023-02-15T21:39:22.148Z,9.93
2023-02-15T21:42:11.385Z,9.92
2023-02-15T21:44:56.628Z,9.90
2023-02-15T21:47:46.566Z,9.89
2023-02-15T21:50:34.490Z,9.87
2023-02-15T21:53:03.160Z,9.86
2023-02-15T21:55:32.100Z,9.84
2023-02-15T21:58:01.649Z,9.84
2023-02-15T22:00:30.571Z,9.82
2023-02-15T22:03:00.870Z,9.80
2023-02-15T22:05:32.238Z,9.78
2023-02-15T22:08:00.635Z,9.78
2023-02-15T22:10:32.218Z,9.75
2023-02-15T22:13:03.692Z,9.77
2023-02-15T22:15:35.831Z,9.75
2023-02-15T22:18:03.767Z,9.73
2023-02-15T22:20:31.686Z,9.72
2023-02-15T22:22:59.408Z,9.72
2023-02-15T22:25:28.073Z,9.72
2023-02-15T22:27:56.377Z,9.71
2023-02-15T22:30:27.792Z,9.71
2023-02-15T22:32:56.417Z,9.70
2023-02-15T22:35:26.529Z,9.69
2023-02-15T22:37:54.474Z,9.70
2023-02-15T22:40:26.814Z,9.67
2023-02-15T22:42:56.208Z,9.68
2023-02-15T22:45:28.045Z,9.67
2023-02-15T22:47:58.344Z,9.64
2023-02-15T22:50:28.565Z,9.65
2023-02-15T22:52:57.079Z,9.63
2023-02-15T22:55:26.332Z,9.63
2023-02-15T22:57:56.717Z,9.62
2023-02-15T23:00:28.525Z,9.62
2023-02-15T23:02:56.664Z,9.59
2023-02-15T23:05:26.105Z,9.59
2023-02-15T23:07:54.572Z,9.57
2023-02-15T23:10:24.608Z,9.56
2023-02-15T23:13:12.526Z,9.56
2023-02-15T23:15:42.785Z,9.54
2023-02-15T23:18:19.006Z,9.52
2023-02-15T23:20:48.052Z,9.51
2023-02-15T23:23:16.070Z,9.48
2023-02-15T23:25:44.229Z,9.49
2023-02-15T23:28:20.241Z,9.45
2023-02-15T23:30:50.107Z,9.47
2023-02-15T23:33:19.992Z,9.45
2023-02-15T23:35:47.766Z,9.42
2023-02-15T23:38:27.406Z,9.41
2023-02-15T23:41:15.213Z,9.41
2023-02-15T23:43:45.457Z,9.40
2023-02-15T23:46:26.615Z,9.38
2023-02-15T23:48:55.177Z,9.36
2023-02-15T23:51:24.635Z,9.37
2023-02-15T23:53:52.385Z,9.34
2023-02-15T23:56:20.153Z,9.35
2023-02-15T23:58:48.480Z,9.31
